sensor_id;sensor_type;location;lat;lon;timestamp;P1;durP1;ratioP1;P2;durP2;ratioP2
23680;SDS011;62915;50.832;4.462;2022-12-13T00:01:36;27.73;;;14.80;;
23680;SDS011;62915;50.832;4.462;2022-12-13T00:04:03;26.50;;;14.10;;
23680;SDS011;62915;50.832;4.462;2022-12-13T00:06:30;27.90;;;14.75;;
23680;SDS011;62915;50.832;4.462;2022-12-13T00:08:57;28.23;;;14.45;;
23680;SDS011;62915;50.832;4.462;2022-12-13T00:11:23;29.75;;;14.95;;
23680;SDS011;62915;50.832;4.462;2022-12-13T00:13:49;28.88;;;13.88;;
23680;SDS011;62915;50.832;4.462;2022-12-13T00:16:16;25.38;;;14.52;;
23680;SDS011;62915;50.832;4.462;2022-12-13T00:18:45;31.10;;;14.70;;
23680;SDS011;62915;50.832;4.462;2022-12-13T00:21:12;28.00;;;14.45;;
23680;SDS011;62915;50.832;4.462;2022-12-13T00:23:40;26.30;;;13.75;;
23680;SDS011;62915;50.832;4.462;2022-12-13T00:26:06;29.20;;;14.90;;
23680;SDS011;62915;50.832;4.462;2022-12-13T00:28:37;26.27;;;14.23;;
23680;SDS011;62915;50.832;4.462;2022-12-13T00:31:04;28.85;;;15.70;;
23680;SDS011;62915;50.832;4.462;2022-12-13T00:33:30;27.33;;;14.90;;
23680;SDS011;62915;50.832;4.462;2022-12-13T00:35:56;27.90;;;15.13;;
23680;SDS011;62915;50.832;4.462;2022-12-13T00:38:24;24.27;;;13.35;;
23680;SDS011;62915;50.832;4.462;2022-12-13T00:40:50;28.65;;;14.30;;
23680;SDS011;62915;50.832;4.462;2022-12-13T00:43:16;30.42;;;15.15;;
23680;SDS011;62915;50.832;4.462;2022-12-13T00:45:42;26.55;;;14.07;;
23680;SDS011;62915;50.832;4.462;2022-12-13T00:48:09;26.00;;;14.05;;
23680;SDS011;62915;50.832;4.462;2022-12-13T00:50:36;28.83;;;15.45;;
23680;SDS011;62915;50.832;4.462;2022-12-13T00:53:02;29.77;;;15.40;;
23680;SDS011;62915;50.832;4.462;2022-12-13T00:55:28;30.45;;;15.48;;
23680;SDS011;62915;50.832;4.462;2022-12-13T00:57:53;28.38;;;15.18;;
23680;SDS011;62915;50.832;4.462;2022-12-13T01:00:19;28.63;;;15.50;;
23680;SDS011;62915;50.832;4.462;2022-12-13T01:02:45;27.77;;;15.25;;
23680;SDS011;62915;50.832;4.462;2022-12-13T01:05:11;26.50;;;13.85;;
23680;SDS011;62915;50.832;4.462;2022-12-13T01:07:37;28.58;;;15.25;;
23680;SDS011;62915;50.832;4.462;2022-12-13T01:10:05;30.90;;;14.80;;
23680;SDS011;62915;50.832;4.462;2022-12-13T01:12:31;32.17;;;15.07;;
23680;SDS011;62915;50.832;4.462;2022-12-13T01:14:58;30.08;;;14.68;;
23680;SDS011;62915;50.832;4.462;2022-12-13T01:17:23;27.35;;;14.45;;
23680;SDS011;62915;50.832;4.462;2022-12-13T01:19:49;25.13;;;14.65;;
23680;SDS011;62915;50.832;4.462;2022-12-13T01:22:15;26.67;;;15.82;;
23680;SDS011;62915;50.832;4.462;2022-12-13T01:24:41;26.95;;;15.20;;
23680;SDS011;62915;50.832;4.462;2022-12-13T01:27:06;27.35;;;14.30;;
23680;SDS011;62915;50.832;4.462;2022-12-13T01:29:32;27.63;;;14.07;;
23680;SDS011;62915;50.832;4.462;2022-12-13T01:31:58;29.20;;;14.15;;
23680;SDS011;62915;50.832;4.462;2022-12-13T01:34:24;30.08;;;15.02;;
23680;SDS011;62915;50.832;4.462;2022-12-13T01:36:51;31.63;;;14.77;;
23680;SDS011;62915;50.832;4.462;2022-12-13T01:39:19;27.95;;;14.88;;
23680;SDS011;62915;50.832;4.462;2022-12-13T01:41:46;26.63;;;14.45;;
23680;SDS011;62915;50.832;4.462;2022-12-13T01:47:18;28.95;;;15.15;;
23680;SDS011;62915;50.832;4.462;2022-12-13T01:49:48;29.23;;;14.48;;
23680;SDS011;62915;50.832;4.462;2022-12-13T01:52:16;28.30;;;14.90;;
23680;SDS011;62915;50.832;4.462;2022-12-13T01:54:43;27.58;;;14.32;;
23680;SDS011;62915;50.832;4.462;2022-12-13T01:57:13;25.58;;;14.68;;
23680;SDS011;62915;50.832;4.462;2022-12-13T01:59:41;27.77;;;14.85;;
23680;SDS011;62915;50.832;4.462;2022-12-13T02:02:08;33.38;;;16.27;;
23680;SDS011;62915;50.832;4.462;2022-12-13T02:04:39;26.95;;;15.43;;
23680;SDS011;62915;50.832;4.462;2022-12-13T02:07:16;33.95;;;16.67;;
23680;SDS011;62915;50.832;4.462;2022-12-13T02:09:43;26.67;;;14.55;;
23680;SDS011;62915;50.832;4.462;2022-12-13T02:12:10;30.77;;;15.80;;
23680;SDS011;62915;50.832;4.462;2022-12-13T02:14:37;34.17;;;15.90;;
23680;SDS011;62915;50.832;4.462;2022-12-13T02:22:39;31.42;;;16.40;;
23680;SDS011;62915;50.832;4.462;2022-12-13T02:28:50;32.40;;;16.17;;
23680;SDS011;62915;50.832;4.462;2022-12-13T02:31:23;29.45;;;15.70;;
23680;SDS011;62915;50.832;4.462;2022-12-13T02:34:29;30.85;;;16.00;;
23680;SDS011;62915;50.832;4.462;2022-12-13T02:37:00;33.13;;;17.38;;
23680;SDS011;62915;50.832;4.462;2022-12-13T02:39:59;26.98;;;16.02;;
23680;SDS011;62915;50.832;4.462;2022-12-13T02:42:34;29.85;;;15.38;;
23680;SDS011;62915;50.832;4.462;2022-12-13T02:45:15;30.13;;;16.50;;
23680;SDS011;62915;50.832;4.462;2022-12-13T02:47:44;31.77;;;16.50;;
23680;SDS011;62915;50.832;4.462;2022-12-13T02:50:11;28.33;;;15.82;;
23680;SDS011;62915;50.832;4.462;2022-12-13T02:52:38;28.13;;;16.50;;
23680;SDS011;62915;50.832;4.462;2022-12-13T02:55:08;28.13;;;14.95;;
23680;SDS011;62915;50.832;4.462;2022-12-13T02:57:38;24.60;;;15.05;;
23680;SDS011;62915;50.832;4.462;2022-12-13T03:00:07;27.60;;;14.80;;
23680;SDS011;62915;50.832;4.462;2022-12-13T03:05:29;30.50;;;15.48;;
23680;SDS011;62915;50.832;4.462;2022-12-13T03:11:13;31.27;;;15.40;;
23680;SDS011;62915;50.832;4.462;2022-12-13T03:13:54;30.33;;;15.13;;
23680;SDS011;62915;50.832;4.462;2022-12-13T03:16:32;27.17;;;15.20;;
23680;SDS011;62915;50.832;4.462;2022-12-13T03:19:03;27.05;;;14.10;;
23680;SDS011;62915;50.832;4.462;2022-12-13T03:21:43;27.45;;;14.43;;
23680;SDS011;62915;50.832;4.462;2022-12-13T03:24:11;27.42;;;15.07;;
23680;SDS011;62915;50.832;4.462;2022-12-13T03:26:37;28.92;;;17.08;;
23680;SDS011;62915;50.832;4.462;2022-12-13T03:29:04;29.08;;;15.90;;
23680;SDS011;62915;50.832;4.462;2022-12-13T03:31:30;31.95;;;17.15;;
23680;SDS011;62915;50.832;4.462;2022-12-13T03:33:56;28.15;;;16.13;;
23680;SDS011;62915;50.832;4.462;2022-12-13T03:36:22;28.75;;;16.90;;
23680;SDS011;62915;50.832;4.462;2022-12-13T03:38:48;30.73;;;16.90;;
23680;SDS011;62915;50.832;4.462;2022-12-13T03:41:17;32.95;;;17.27;;
23680;SDS011;62915;50.832;4.462;2022-12-13T03:43:45;30.52;;;16.95;;
23680;SDS011;62915;50.832;4.462;2022-12-13T03:46:12;32.25;;;17.88;;
23680;SDS011;62915;50.832;4.462;2022-12-13T03:48:37;28.92;;;16.85;;
23680;SDS011;62915;50.832;4.462;2022-12-13T03:51:03;26.50;;;15.65;;
23680;SDS011;62915;50.832;4.462;2022-12-13T03:53:29;26.27;;;15.75;;
23680;SDS011;62915;50.832;4.462;2022-12-13T03:55:55;27.45;;;16.80;;
23680;SDS011;62915;50.832;4.462;2022-12-13T03:58:21;30.17;;;16.17;;
23680;SDS011;62915;50.832;4.462;2022-12-13T04:00:47;27.65;;;15.35;;
23680;SDS011;62915;50.832;4.462;2022-12-13T04:03:13;29.13;;;16.17;;
23680;SDS011;62915;50.832;4.462;2022-12-13T04:05:39;23.73;;;14.75;;
23680;SDS011;62915;50.832;4.462;2022-12-13T04:08:05;28.30;;;15.50;;
23680;SDS011;62915;50.832;4.462;2022-12-13T04:10:31;29.95;;;15.90;;
23680;SDS011;62915;50.832;4.462;2022-12-13T04:12:57;26.80;;;16.42;;
23680;SDS011;62915;50.832;4.462;2022-12-13T04:18:16;28.38;;;15.35;;
23680;SDS011;62915;50.832;4.462;2022-12-13T04:20:42;26.17;;;15.18;;
23680;SDS011;62915;50.832;4.462;2022-12-13T04:23:08;27.90;;;15.88;;
23680;SDS011;62915;50.832;4.462;2022-12-13T04:25:34;29.48;;;16.50;;
23680;SDS011;62915;50.832;4.462;2022-12-13T04:28:00;26.45;;;14.95;;
23680;SDS011;62915;50.832;4.462;2022-12-13T04:30:25;30.77;;;15.73;;
23680;SDS011;62915;50.832;4.462;2022-12-13T04:32:51;31.25;;;17.52;;
23680;SDS011;62915;50.832;4.462;2022-12-13T04:35:20;32.88;;;16.63;;
23680;SDS011;62915;50.832;4.462;2022-12-13T04:37:46;28.20;;;15.90;;
23680;SDS011;62915;50.832;4.462;2022-12-13T04:40:12;25.10;;;14.73;;
23680;SDS011;62915;50.832;4.462;2022-12-13T04:42:38;27.05;;;15.80;;
23680;SDS011;62915;50.832;4.462;2022-12-13T04:45:03;26.48;;;16.27;;
23680;SDS011;62915;50.832;4.462;2022-12-13T04:47:29;26.25;;;16.08;;
23680;SDS011;62915;50.832;4.462;2022-12-13T04:49:55;24.52;;;15.15;;
23680;SDS011;62915;50.832;4.462;2022-12-13T04:52:21;28.42;;;15.70;;
23680;SDS011;62915;50.832;4.462;2022-12-13T04:54:47;30.05;;;16.70;;
23680;SDS011;62915;50.832;4.462;2022-12-13T04:57:13;32.78;;;16.77;;
23680;SDS011;62915;50.832;4.462;2022-12-13T04:59:39;30.63;;;16.65;;
23680;SDS011;62915;50.832;4.462;2022-12-13T05:02:06;30.60;;;17.25;;
23680;SDS011;62915;50.832;4.462;2022-12-13T05:04:32;31.05;;;15.82;;
23680;SDS011;62915;50.832;4.462;2022-12-13T05:06:58;32.20;;;15.90;;
23680;SDS011;62915;50.832;4.462;2022-12-13T05:09:24;31.95;;;18.02;;
23680;SDS011;62915;50.832;4.462;2022-12-13T05:11:50;27.90;;;15.68;;
23680;SDS011;62915;50.832;4.462;2022-12-13T05:14:15;29.58;;;16.05;;
23680;SDS011;62915;50.832;4.462;2022-12-13T05:16:41;29.00;;;16.70;;
23680;SDS011;62915;50.832;4.462;2022-12-13T05:19:07;34.72;;;18.55;;
23680;SDS011;62915;50.832;4.462;2022-12-13T05:21:32;31.17;;;18.33;;
23680;SDS011;62915;50.832;4.462;2022-12-13T05:23:59;31.73;;;17.73;;
23680;SDS011;62915;50.832;4.462;2022-12-13T05:26:26;31.27;;;16.73;;
23680;SDS011;62915;50.832;4.462;2022-12-13T05:28:54;31.35;;;17.15;;
23680;SDS011;62915;50.832;4.462;2022-12-13T05:31:20;33.28;;;16.95;;
23680;SDS011;62915;50.832;4.462;2022-12-13T05:33:46;27.73;;;16.38;;
23680;SDS011;62915;50.832;4.462;2022-12-13T05:36:11;30.10;;;16.58;;
23680;SDS011;62915;50.832;4.462;2022-12-13T05:38:37;34.08;;;17.17;;
23680;SDS011;62915;50.832;4.462;2022-12-13T05:41:03;30.55;;;15.52;;
23680;SDS011;62915;50.832;4.462;2022-12-13T05:43:31;25.17;;;15.20;;
23680;SDS011;62915;50.832;4.462;2022-12-13T05:45:57;29.40;;;16.77;;
23680;SDS011;62915;50.832;4.462;2022-12-13T05:48:25;26.90;;;16.02;;
23680;SDS011;62915;50.832;4.462;2022-12-13T05:50:53;26.30;;;14.80;;
23680;SDS011;62915;50.832;4.462;2022-12-13T05:53:18;26.38;;;15.77;;
23680;SDS011;62915;50.832;4.462;2022-12-13T05:55:44;27.10;;;15.18;;
23680;SDS011;62915;50.832;4.462;2022-12-13T05:58:10;30.17;;;16.10;;
23680;SDS011;62915;50.832;4.462;2022-12-13T06:00:37;31.17;;;16.63;;
23680;SDS011;62915;50.832;4.462;2022-12-13T06:03:03;30.58;;;15.90;;
23680;SDS011;62915;50.832;4.462;2022-12-13T06:05:29;35.63;;;16.35;;
23680;SDS011;62915;50.832;4.462;2022-12-13T06:07:56;29.33;;;17.10;;
23680;SDS011;62915;50.832;4.462;2022-12-13T06:10:22;25.88;;;14.85;;
23680;SDS011;62915;50.832;4.462;2022-12-13T06:12:48;27.17;;;16.30;;
23680;SDS011;62915;50.832;4.462;2022-12-13T06:15:14;29.25;;;16.65;;
23680;SDS011;62915;50.832;4.462;2022-12-13T06:17:39;26.85;;;15.57;;
23680;SDS011;62915;50.832;4.462;2022-12-13T06:20:05;30.60;;;16.70;;
23680;SDS011;62915;50.832;4.462;2022-12-13T06:22:32;28.10;;;16.20;;
23680;SDS011;62915;50.832;4.462;2022-12-13T06:24:57;31.50;;;16.38;;
23680;SDS011;62915;50.832;4.462;2022-12-13T06:27:23;24.33;;;15.63;;
23680;SDS011;62915;50.832;4.462;2022-12-13T06:29:50;28.70;;;15.65;;
23680;SDS011;62915;50.832;4.462;2022-12-13T06:32:15;29.13;;;16.00;;
23680;SDS011;62915;50.832;4.462;2022-12-13T06:34:41;27.85;;;16.23;;
23680;SDS011;62915;50.832;4.462;2022-12-13T06:37:07;40.60;;;17.38;;
23680;SDS011;62915;50.832;4.462;2022-12-13T06:39:37;26.17;;;15.65;;
23680;SDS011;62915;50.832;4.462;2022-12-13T06:42:03;29.10;;;17.20;;
23680;SDS011;62915;50.832;4.462;2022-12-13T06:44:33;28.45;;;16.35;;
23680;SDS011;62915;50.832;4.462;2022-12-13T06:46:59;27.25;;;15.88;;
23680;SDS011;62915;50.832;4.462;2022-12-13T06:49:26;32.95;;;17.15;;
23680;SDS011;62915;50.832;4.462;2022-12-13T06:51:52;26.08;;;16.27;;
23680;SDS011;62915;50.832;4.462;2022-12-13T06:54:18;26.23;;;16.20;;
23680;SDS011;62915;50.832;4.462;2022-12-13T06:56:44;44.50;;;17.70;;
23680;SDS011;62915;50.832;4.462;2022-12-13T06:59:11;25.55;;;15.05;;
23680;SDS011;62915;50.832;4.462;2022-12-13T07:01:36;27.55;;;15.75;;
23680;SDS011;62915;50.832;4.462;2022-12-13T07:04:02;27.33;;;15.82;;
23680;SDS011;62915;50.832;4.462;2022-12-13T07:06:28;28.10;;;16.08;;
23680;SDS011;62915;50.832;4.462;2022-12-13T07:08:54;27.63;;;16.00;;
23680;SDS011;62915;50.832;4.462;2022-12-13T07:11:22;31.13;;;17.13;;
23680;SDS011;62915;50.832;4.462;2022-12-13T07:13:49;28.08;;;17.08;;
23680;SDS011;62915;50.832;4.462;2022-12-13T07:16:16;29.63;;;17.23;;
23680;SDS011;62915;50.832;4.462;2022-12-13T07:18:41;34.60;;;16.80;;
23680;SDS011;62915;50.832;4.462;2022-12-13T07:21:08;31.23;;;17.58;;
23680;SDS011;62915;50.832;4.462;2022-12-13T07:23:35;28.85;;;17.65;;
23680;SDS011;62915;50.832;4.462;2022-12-13T07:26:02;25.45;;;16.80;;
23680;SDS011;62915;50.832;4.462;2022-12-13T07:28:32;31.55;;;17.63;;
23680;SDS011;62915;50.832;4.462;2022-12-13T07:30:59;31.33;;;18.65;;
23680;SDS011;62915;50.832;4.462;2022-12-13T07:33:26;29.58;;;16.65;;
23680;SDS011;62915;50.832;4.462;2022-12-13T07:36:13;30.33;;;17.48;;
23680;SDS011;62915;50.832;4.462;2022-12-13T07:38:40;28.90;;;16.95;;
23680;SDS011;62915;50.832;4.462;2022-12-13T07:41:06;30.02;;;16.20;;
23680;SDS011;62915;50.832;4.462;2022-12-13T07:43:32;29.30;;;17.95;;
23680;SDS011;62915;50.832;4.462;2022-12-13T07:45:59;39.83;;;19.23;;
23680;SDS011;62915;50.832;4.462;2022-12-13T07:48:25;36.78;;;21.55;;
23680;SDS011;62915;50.832;4.462;2022-12-13T07:50:52;38.70;;;21.90;;
23680;SDS011;62915;50.832;4.462;2022-12-13T07:53:18;35.75;;;21.42;;
23680;SDS011;62915;50.832;4.462;2022-12-13T07:55:45;34.03;;;20.77;;
23680;SDS011;62915;50.832;4.462;2022-12-13T07:58:14;34.17;;;19.23;;
23680;SDS011;62915;50.832;4.462;2022-12-13T08:00:40;35.30;;;20.30;;
23680;SDS011;62915;50.832;4.462;2022-12-13T08:03:07;39.63;;;18.40;;
23680;SDS011;62915;50.832;4.462;2022-12-13T08:05:34;40.00;;;19.13;;
23680;SDS011;62915;50.832;4.462;2022-12-13T08:08:02;38.72;;;19.50;;
23680;SDS011;62915;50.832;4.462;2022-12-13T08:10:29;35.80;;;20.02;;
23680;SDS011;62915;50.832;4.462;2022-12-13T08:12:56;33.30;;;19.15;;
23680;SDS011;62915;50.832;4.462;2022-12-13T08:15:22;32.50;;;17.83;;
23680;SDS011;62915;50.832;4.462;2022-12-13T08:17:48;35.22;;;19.45;;
23680;SDS011;62915;50.832;4.462;2022-12-13T08:20:14;38.72;;;19.48;;
23680;SDS011;62915;50.832;4.462;2022-12-13T08:22:41;38.63;;;19.00;;
23680;SDS011;62915;50.832;4.462;2022-12-13T08:25:07;38.92;;;20.13;;
23680;SDS011;62915;50.832;4.462;2022-12-13T08:27:33;35.42;;;17.67;;
23680;SDS011;62915;50.832;4.462;2022-12-13T08:29:59;31.67;;;18.15;;
23680;SDS011;62915;50.832;4.462;2022-12-13T08:32:25;34.72;;;19.48;;
23680;SDS011;62915;50.832;4.462;2022-12-13T08:34:51;36.88;;;20.52;;
23680;SDS011;62915;50.832;4.462;2022-12-13T08:37:16;31.33;;;18.33;;
23680;SDS011;62915;50.832;4.462;2022-12-13T08:39:42;36.95;;;19.15;;
23680;SDS011;62915;50.832;4.462;2022-12-13T08:42:11;30.98;;;17.90;;
23680;SDS011;62915;50.832;4.462;2022-12-13T08:44:39;34.63;;;18.48;;
23680;SDS011;62915;50.832;4.462;2022-12-13T08:47:04;36.30;;;19.08;;
23680;SDS011;62915;50.832;4.462;2022-12-13T08:49:30;32.85;;;19.38;;
23680;SDS011;62915;50.832;4.462;2022-12-13T08:51:56;32.75;;;18.45;;
23680;SDS011;62915;50.832;4.462;2022-12-13T08:54:22;33.65;;;18.23;;
23680;SDS011;62915;50.832;4.462;2022-12-13T08:56:48;32.28;;;19.92;;
23680;SDS011;62915;50.832;4.462;2022-12-13T08:59:13;35.97;;;18.67;;
23680;SDS011;62915;50.832;4.462;2022-12-13T09:01:39;33.22;;;18.02;;
23680;SDS011;62915;50.832;4.462;2022-12-13T09:04:05;35.85;;;18.48;;
23680;SDS011;62915;50.832;4.462;2022-12-13T09:06:30;39.08;;;19.50;;
23680;SDS011;62915;50.832;4.462;2022-12-13T09:08:56;34.50;;;18.88;;
23680;SDS011;62915;50.832;4.462;2022-12-13T09:11:22;30.40;;;17.00;;
23680;SDS011;62915;50.832;4.462;2022-12-13T09:13:47;32.33;;;17.50;;
23680;SDS011;62915;50.832;4.462;2022-12-13T09:16:14;33.47;;;18.77;;
23680;SDS011;62915;50.832;4.462;2022-12-13T09:18:44;31.23;;;17.20;;
23680;SDS011;62915;50.832;4.462;2022-12-13T09:21:11;32.25;;;17.38;;
23680;SDS011;62915;50.832;4.462;2022-12-13T09:23:39;32.00;;;17.95;;
23680;SDS011;62915;50.832;4.462;2022-12-13T09:26:06;32.75;;;17.17;;
23680;SDS011;62915;50.832;4.462;2022-12-13T09:28:32;28.38;;;15.80;;
23680;SDS011;62915;50.832;4.462;2022-12-13T09:31:05;27.83;;;16.60;;
23680;SDS011;62915;50.832;4.462;2022-12-13T09:33:35;27.38;;;14.70;;
23680;SDS011;62915;50.832;4.462;2022-12-13T09:36:05;28.80;;;15.40;;
23680;SDS011;62915;50.832;4.462;2022-12-13T09:38:32;24.42;;;14.65;;
23680;SDS011;62915;50.832;4.462;2022-12-13T09:40:59;26.48;;;14.95;;
23680;SDS011;62915;50.832;4.462;2022-12-13T09:43:36;26.88;;;14.82;;
23680;SDS011;62915;50.832;4.462;2022-12-13T09:46:06;27.58;;;14.73;;
23680;SDS011;62915;50.832;4.462;2022-12-13T09:48:36;26.33;;;15.23;;
23680;SDS011;62915;50.832;4.462;2022-12-13T09:51:02;25.20;;;15.00;;
23680;SDS011;62915;50.832;4.462;2022-12-13T09:53:28;29.58;;;14.82;;
23680;SDS011;62915;50.832;4.462;2022-12-13T09:55:54;26.70;;;14.07;;
23680;SDS011;62915;50.832;4.462;2022-12-13T09:58:20;25.33;;;13.15;;
23680;SDS011;62915;50.832;4.462;2022-12-13T10:00:50;20.45;;;13.20;;
23680;SDS011;62915;50.832;4.462;2022-12-13T10:03:19;20.33;;;13.07;;
23680;SDS011;62915;50.832;4.462;2022-12-13T10:06:28;22.58;;;13.15;;
23680;SDS011;62915;50.832;4.462;2022-12-13T10:08:51;22.65;;;13.20;;
23680;SDS011;62915;50.832;4.462;2022-12-13T10:11:20;21.52;;;12.73;;
23680;SDS011;62915;50.832;4.462;2022-12-13T10:16:26;19.42;;;12.57;;
23680;SDS011;62915;50.832;4.462;2022-12-13T10:18:52;23.95;;;12.68;;
23680;SDS011;62915;50.832;4.462;2022-12-13T10:21:33;20.98;;;11.88;;
23680;SDS011;62915;50.832;4.462;2022-12-13T10:24:06;18.60;;;12.65;;
23680;SDS011;62915;50.832;4.462;2022-12-13T10:26:37;19.20;;;12.80;;
23680;SDS011;62915;50.832;4.462;2022-12-13T10:29:03;17.00;;;12.27;;
23680;SDS011;62915;50.832;4.462;2022-12-13T10:31:37;19.27;;;13.27;;
23680;SDS011;62915;50.832;4.462;2022-12-13T10:34:20;20.20;;;12.02;;
23680;SDS011;62915;50.832;4.462;2022-12-13T10:36:47;19.77;;;12.02;;
23680;SDS011;62915;50.832;4.462;2022-12-13T10:39:16;18.88;;;12.52;;
23680;SDS011;62915;50.832;4.462;2022-12-13T10:42:03;18.73;;;12.27;;
23680;SDS011;62915;50.832;4.462;2022-12-13T10:44:37;21.00;;;13.00;;
23680;SDS011;62915;50.832;4.462;2022-12-13T10:52:19;18.65;;;12.95;;
23680;SDS011;62915;50.832;4.462;2022-12-13T10:54:48;23.90;;;13.55;;
23680;SDS011;62915;50.832;4.462;2022-12-13T10:57:14;18.17;;;12.20;;
23680;SDS011;62915;50.832;4.462;2022-12-13T10:59:41;20.23;;;12.05;;
23680;SDS011;62915;50.832;4.462;2022-12-13T11:02:24;17.00;;;11.95;;
23680;SDS011;62915;50.832;4.462;2022-12-13T11:07:51;18.90;;;11.68;;
23680;SDS011;62915;50.832;4.462;2022-12-13T11:12:45;18.40;;;12.15;;
23680;SDS011;62915;50.832;4.462;2022-12-13T11:15:15;19.77;;;11.73;;
23680;SDS011;62915;50.832;4.462;2022-12-13T11:17:50;18.27;;;11.75;;
23680;SDS011;62915;50.832;4.462;2022-12-13T11:20:20;19.30;;;12.30;;
23680;SDS011;62915;50.832;4.462;2022-12-13T11:22:48;21.60;;;12.52;;
23680;SDS011;62915;50.832;4.462;2022-12-13T11:25:28;25.60;;;13.25;;
23680;SDS011;62915;50.832;4.462;2022-12-13T11:28:07;17.50;;;11.05;;
23680;SDS011;62915;50.832;4.462;2022-12-13T11:30:49;21.17;;;12.77;;
23680;SDS011;62915;50.832;4.462;2022-12-13T11:41:19;21.52;;;12.15;;
23680;SDS011;62915;50.832;4.462;2022-12-13T11:43:53;17.83;;;11.93;;
23680;SDS011;62915;50.832;4.462;2022-12-13T11:46:40;16.17;;;10.73;;
23680;SDS011;62915;50.832;4.462;2022-12-13T11:49:16;17.92;;;10.60;;
23680;SDS011;62915;50.832;4.462;2022-12-13T11:51:59;17.50;;;10.73;;
23680;SDS011;62915;50.832;4.462;2022-12-13T11:54:43;21.98;;;11.27;;
23680;SDS011;62915;50.832;4.462;2022-12-13T11:57:25;17.95;;;11.35;;
23680;SDS011;62915;50.832;4.462;2022-12-13T12:00:29;19.27;;;10.95;;
23680;SDS011;62915;50.832;4.462;2022-12-13T12:02:59;16.33;;;10.73;;
23680;SDS011;62915;50.832;4.462;2022-12-13T12:05:40;17.92;;;11.27;;
23680;SDS011;62915;50.832;4.462;2022-12-13T12:10:42;18.88;;;11.50;;
23680;SDS011;62915;50.832;4.462;2022-12-13T12:18:20;18.40;;;11.15;;
23680;SDS011;62915;50.832;4.462;2022-12-13T12:29:55;19.48;;;10.95;;
23680;SDS011;62915;50.832;4.462;2022-12-13T12:43:41;18.88;;;10.75;;
23680;SDS011;62915;50.832;4.462;2022-12-13T12:57:02;18.67;;;11.32;;
23680;SDS011;62915;50.832;4.462;2022-12-13T13:02:15;23.17;;;12.30;;
23680;SDS011;62915;50.832;4.462;2022-12-13T13:04:54;18.50;;;11.52;;
23680;SDS011;62915;50.832;4.462;2022-12-13T13:07:31;22.60;;;12.38;;
23680;SDS011;62915;50.832;4.462;2022-12-13T13:10:03;20.45;;;11.65;;
23680;SDS011;62915;50.832;4.462;2022-12-13T13:12:30;21.67;;;13.30;;
23680;SDS011;62915;50.832;4.462;2022-12-13T13:15:00;20.60;;;11.85;;
23680;SDS011;62915;50.832;4.462;2022-12-13T13:17:55;21.23;;;11.82;;
23680;SDS011;62915;50.832;4.462;2022-12-13T13:20:22;25.63;;;13.48;;
23680;SDS011;62915;50.832;4.462;2022-12-13T13:22:52;22.52;;;12.60;;
23680;SDS011;62915;50.832;4.462;2022-12-13T13:25:32;22.63;;;12.95;;
23680;SDS011;62915;50.832;4.462;2022-12-13T13:28:00;24.13;;;12.85;;
23680;SDS011;62915;50.832;4.462;2022-12-13T13:30:29;24.00;;;13.60;;
23680;SDS011;62915;50.832;4.462;2022-12-13T13:32:55;22.30;;;12.68;;
23680;SDS011;62915;50.832;4.462;2022-12-13T13:38:46;19.17;;;12.25;;
23680;SDS011;62915;50.832;4.462;2022-12-13T13:40:53;22.08;;;12.43;;
23680;SDS011;62915;50.832;4.462;2022-12-13T13:43:28;22.88;;;11.90;;
23680;SDS011;62915;50.832;4.462;2022-12-13T13:45:56;21.10;;;12.48;;
23680;SDS011;62915;50.832;4.462;2022-12-13T14:00:14;22.92;;;13.40;;
23680;SDS011;62915;50.832;4.462;2022-12-13T14:09:07;28.05;;;13.43;;
23680;SDS011;62915;50.832;4.462;2022-12-13T14:18:08;23.98;;;13.50;;
23680;SDS011;62915;50.832;4.462;2022-12-13T14:29:00;29.67;;;14.50;;
23680;SDS011;62915;50.832;4.462;2022-12-13T14:31:35;30.35;;;14.70;;
23680;SDS011;62915;50.832;4.462;2022-12-13T14:34:06;26.85;;;15.05;;
23680;SDS011;62915;50.832;4.462;2022-12-13T14:36:40;27.80;;;15.15;;
23680;SDS011;62915;50.832;4.462;2022-12-13T14:39:13;25.50;;;13.95;;
23680;SDS011;62915;50.832;4.462;2022-12-13T14:41:46;29.63;;;14.93;;
23680;SDS011;62915;50.832;4.462;2022-12-13T14:44:14;28.27;;;14.32;;
23680;SDS011;62915;50.832;4.462;2022-12-13T14:47:00;28.05;;;16.20;;
23680;SDS011;62915;50.832;4.462;2022-12-13T14:49:35;29.80;;;16.08;;
23680;SDS011;62915;50.832;4.462;2022-12-13T14:52:07;29.55;;;15.88;;
23680;SDS011;62915;50.832;4.462;2022-12-13T14:54:52;27.33;;;14.70;;
23680;SDS011;62915;50.832;4.462;2022-12-13T14:57:24;26.85;;;15.35;;
23680;SDS011;62915;50.832;4.462;2022-12-13T14:59:52;28.30;;;15.35;;
23680;SDS011;62915;50.832;4.462;2022-12-13T15:02:21;29.17;;;15.25;;
23680;SDS011;62915;50.832;4.462;2022-12-13T15:04:55;33.20;;;16.30;;
23680;SDS011;62915;50.832;4.462;2022-12-13T15:07:55;25.80;;;14.95;;
23680;SDS011;62915;50.832;4.462;2022-12-13T15:10:21;27.23;;;15.27;;
23680;SDS011;62915;50.832;4.462;2022-12-13T15:13:02;27.33;;;14.90;;
23680;SDS011;62915;50.832;4.462;2022-12-13T15:15:30;28.30;;;16.25;;
23680;SDS011;62915;50.832;4.462;2022-12-13T15:18:18;30.58;;;16.55;;
23680;SDS011;62915;50.832;4.462;2022-12-13T15:20:47;33.45;;;15.93;;
23680;SDS011;62915;50.832;4.462;2022-12-13T15:25:45;33.08;;;18.00;;
23680;SDS011;62915;50.832;4.462;2022-12-13T15:28:14;30.85;;;16.88;;
23680;SDS011;62915;50.832;4.462;2022-12-13T15:30:41;31.42;;;18.00;;
23680;SDS011;62915;50.832;4.462;2022-12-13T15:33:24;30.30;;;17.10;;
23680;SDS011;62915;50.832;4.462;2022-12-13T15:41:19;28.83;;;16.48;;
23680;SDS011;62915;50.832;4.462;2022-12-13T15:43:51;32.28;;;17.35;;
23680;SDS011;62915;50.832;4.462;2022-12-13T15:46:28;33.78;;;17.83;;
23680;SDS011;62915;50.832;4.462;2022-12-13T15:48:56;31.77;;;17.80;;
23680;SDS011;62915;50.832;4.462;2022-12-13T15:51:25;36.75;;;18.15;;
23680;SDS011;62915;50.832;4.462;2022-12-13T15:56:37;31.33;;;19.15;;
23680;SDS011;62915;50.832;4.462;2022-12-13T15:59:32;40.08;;;20.00;;
23680;SDS011;62915;50.832;4.462;2022-12-13T16:01:59;40.75;;;21.02;;
23680;SDS011;62915;50.832;4.462;2022-12-13T16:04:28;41.13;;;20.77;;
23680;SDS011;62915;50.832;4.462;2022-12-13T16:06:57;43.70;;;22.02;;
23680;SDS011;62915;50.832;4.462;2022-12-13T16:09:24;38.63;;;20.77;;
23680;SDS011;62915;50.832;4.462;2022-12-13T16:11:55;42.58;;;22.10;;
23680;SDS011;62915;50.832;4.462;2022-12-13T16:16:59;44.30;;;21.98;;
23680;SDS011;62915;50.832;4.462;2022-12-13T16:19:34;38.03;;;21.73;;
23680;SDS011;62915;50.832;4.462;2022-12-13T16:22:00;44.00;;;21.35;;
23680;SDS011;62915;50.832;4.462;2022-12-13T16:24:26;40.45;;;20.67;;
23680;SDS011;62915;50.832;4.462;2022-12-13T16:26:51;44.83;;;21.88;;
23680;SDS011;62915;50.832;4.462;2022-12-13T16:29:17;43.80;;;22.45;;
23680;SDS011;62915;50.832;4.462;2022-12-13T16:31:43;43.97;;;23.20;;
23680;SDS011;62915;50.832;4.462;2022-12-13T16:34:09;44.60;;;24.70;;
23680;SDS011;62915;50.832;4.462;2022-12-13T16:36:35;44.53;;;22.42;;
23680;SDS011;62915;50.832;4.462;2022-12-13T16:39:05;42.50;;;22.60;;
23680;SDS011;62915;50.832;4.462;2022-12-13T16:41:34;39.47;;;22.00;;
23680;SDS011;62915;50.832;4.462;2022-12-13T16:44:01;41.90;;;22.10;;
23680;SDS011;62915;50.832;4.462;2022-12-13T16:46:28;45.22;;;22.50;;